Time;durP1;ratioP1;P1;durP2;ratioP2;P2;SDS_P1;SDS_P2;PMS_P1;PMS_P2;Temp;Humidity;BMP_temperature;BMP_pressure;BME280_temperature;BME280_humidity;BME280_pressure;Samples;Min_cycle;Max_cycle;Signal;HPM_P1;HPM_P2
2023/04/30 00:02:20;;;;;;;21.00;9.60;;;;;;;5.25;60.26;101006.50;107578;1255;96525;-61
2023/04/30 00:04:49;;;;;;;22.10;8.90;;;;;;;5.23;60.55;100998.45;107664;1255;96999;-62
2023/04/30 00:07:26;;;;;;;22.30;8.90;;;;;;;5.28;60.90;101005.66;107562;1251;110111;-60
2023/04/30 00:09:55;;;;;;;19.00;8.70;;;;;;;5.29;60.97;101008.78;107529;1251;109681;-60
2023/04/30 00:12:24;;;;;;;27.30;9.00;;;;;;;5.29;60.73;101009.98;107623;1251;108352;-60
2023/04/30 00:14:55;;;;;;;24.00;9.10;;;;;;;5.31;61.74;101010.07;107576;1251;96603;-60
2023/04/30 00:17:25;;;;;;;18.30;7.30;;;;;;;5.27;61.75;101011.23;107611;1251;96350;-61
2023/04/30 00:19:53;;;;;;;20.00;9.80;;;;;;;5.24;61.84;101012.64;107454;1251;111581;-62
2023/04/30 00:22:22;;;;;;;21.60;9.00;;;;;;;5.24;61.64;101006.98;107609;1256;110099;-60
2023/04/30 00:24:50;;;;;;;24.50;8.60;;;;;;;5.25;61.83;101002.30;107469;1251;106921;-61
2023/04/30 00:27:19;;;;;;;23.10;8.60;;;;;;;5.23;61.93;101002.04;107461;1251;96453;-59
2023/04/30 00:29:47;;;;;;;22.50;8.80;;;;;;;5.22;62.05;101002.45;107552;1251;96978;-61
2023/04/30 00:32:16;;;;;;;23.20;8.80;;;;;;;5.21;61.98;100999.83;107536;1254;110147;-60
2023/04/30 00:34:44;;;;;;;23.30;9.50;;;;;;;5.21;62.43;101002.55;107534;1251;110729;-61
2023/04/30 00:37:14;;;;;;;16.70;8.10;;;;;;;5.19;61.86;100999.48;107444;1254;108168;-61
2023/04/30 00:39:43;;;;;;;25.10;8.20;;;;;;;5.17;62.36;100997.42;107544;1251;96483;-62
2023/04/30 00:42:11;;;;;;;18.50;8.80;;;;;;;5.13;62.52;100998.02;107573;1251;96654;-61
2023/04/30 00:44:40;;;;;;;31.60;8.20;;;;;;;5.10;62.33;100995.52;107511;1254;110935;-61
2023/04/30 00:47:09;;;;;;;18.40;9.10;;;;;;;5.08;62.25;100992.45;107607;1251;109766;-61
2023/04/30 00:49:38;;;;;;;23.50;8.60;;;;;;;5.09;61.91;100991.90;107477;1251;107582;-59
2023/04/30 00:52:06;;;;;;;19.30;7.90;;;;;;;5.10;61.80;100989.35;107492;1251;96437;-61
2023/04/30 00:54:35;;;;;;;23.60;9.60;;;;;;;5.09;61.40;100986.00;107571;1252;96392;-62
2023/04/30 00:57:05;;;;;;;21.50;8.90;;;;;;;5.06;61.58;100986.18;107479;1251;110201;-60
2023/04/30 00:59:34;;;;;;;18.10;9.30;;;;;;;5.05;61.48;100984.16;107576;1251;109851;-60
2023/04/30 01:02:03;;;;;;;18.90;9.00;;;;;;;5.02;61.19;100982.02;107648;1251;107841;-60
2023/04/30 01:04:32;;;;;;;21.40;9.00;;;;;;;4.99;61.24;100982.52;107541;1254;96465;-62
2023/04/30 01:07:01;;;;;;;15.30;7.80;;;;;;;4.95;61.02;100977.96;107556;1251;96511;-60
2023/04/30 01:09:30;;;;;;;22.30;9.30;;;;;;;4.90;60.92;100982.91;107500;1251;110484;-60
2023/04/30 01:12:43;;;;;;;22.00;10.00;;;;;;;4.84;60.82;100977.54;107513;1251;109214;-60
2023/04/30 01:15:24;;;;;;;20.60;9.50;;;;;;;4.78;60.62;100978.16;107514;1251;107750;-60
2023/04/30 01:18:12;;;;;;;19.30;8.70;;;;;;;4.73;61.06;100974.55;107594;1251;96466;-60
2023/04/30 01:20:51;;;;;;;25.20;9.30;;;;;;;4.65;61.25;100969.52;107614;1251;97022;-59
2023/04/30 01:23:28;;;;;;;25.60;8.80;;;;;;;4.59;61.29;100966.14;107533;1251;110976;-60
2023/04/30 01:26:03;;;;;;;25.50;9.80;;;;;;;4.53;61.23;100968.98;107564;1254;109910;-60
2023/04/30 01:28:35;;;;;;;19.90;9.30;;;;;;;4.51;61.58;100969.98;107586;1250;108107;-62
2023/04/30 01:31:13;;;;;;;19.00;9.70;;;;;;;4.47;61.42;100967.70;107576;1256;96461;-60
2023/04/30 01:33:42;;;;;;;25.70;10.30;;;;;;;4.41;61.56;100962.54;107646;1254;97892;-60
2023/04/30 01:36:34;;;;;;;20.60;9.90;;;;;;;4.37;61.73;100963.88;107685;1251;110468;-60
2023/04/30 01:39:21;;;;;;;19.20;9.60;;;;;;;4.33;62.03;100963.23;107597;1251;108975;-61
2023/04/30 01:41:55;;;;;;;18.80;9.40;;;;;;;4.31;61.93;100960.85;107491;1251;108490;-60
2023/04/30 01:44:41;;;;;;;19.70;9.40;;;;;;;4.30;62.31;100964.27;107477;1251;97856;-59
2023/04/30 01:47:16;;;;;;;21.40;9.10;;;;;;;4.28;62.80;100954.98;107487;1253;97834;-60
2023/04/30 01:50:07;;;;;;;29.00;9.90;;;;;;;4.28;62.42;100955.38;107509;1254;112276;-61
2023/04/30 01:52:40;;;;;;;22.40;10.00;;;;;;;4.28;62.53;100952.48;107487;1254;109577;-61
2023/04/30 01:55:49;;;;;;;22.00;10.10;;;;;;;4.28;62.66;100950.91;107459;1253;108509;-62
2023/04/30 01:58:21;;;;;;;20.50;9.50;;;;;;;4.28;62.49;100950.23;107380;1254;97835;-60
2023/04/30 02:00:50;;;;;;;23.70;9.70;;;;;;;4.28;62.55;100951.44;107494;1254;98360;-60
2023/04/30 02:03:19;;;;;;;27.10;9.10;;;;;;;4.29;62.44;100952.09;107469;1254;111250;-60
2023/04/30 02:05:50;;;;;;;20.00;9.20;;;;;;;4.27;62.71;100951.66;107467;1254;110050;-60
2023/04/30 02:08:18;;;;;;;23.80;8.70;;;;;;;4.25;62.83;100952.55;107549;1253;108184;-62
2023/04/30 02:10:46;;;;;;;18.90;8.70;;;;;;;4.24;63.06;100953.45;107474;1254;97819;-62
2023/04/30 02:13:16;;;;;;;25.10;8.80;;;;;;;4.26;63.13;100956.38;107397;1254;97882;-62
2023/04/30 02:15:45;;;;;;;17.80;8.10;;;;;;;4.30;63.62;100953.30;107527;1254;111409;-61
2023/04/30 02:18:13;;;;;;;16.00;7.60;;;;;;;4.33;63.57;100955.60;107489;1254;109050;-60
2023/04/30 02:20:42;;;;;;;25.10;8.50;;;;;;;4.38;63.73;100952.43;107493;1257;108704;-60
2023/04/30 02:23:12;;;;;;;29.60;9.50;;;;;;;4.45;63.93;100952.23;107535;1257;97582;-59
2023/04/30 02:25:40;;;;;;;35.60;10.10;;;;;;;4.42;64.06;100948.33;107492;1253;98559;-60
2023/04/30 02:28:09;;;;;;;21.50;8.80;;;;;;;4.40;64.72;100946.48;107542;1256;111924;-60
2023/04/30 02:30:38;;;;;;;18.40;9.10;;;;;;;4.35;64.48;100946.73;107439;1257;109194;-61
2023/04/30 02:33:06;;;;;;;28.10;9.00;;;;;;;4.37;64.55;100944.86;107530;1254;108318;-61
2023/04/30 02:35:35;;;;;;;21.50;8.40;;;;;;;4.46;64.75;100948.63;107565;1256;97710;-62
2023/04/30 02:38:04;;;;;;;18.70;8.40;;;;;;;4.55;64.54;100952.31;107542;1254;97723;-60
2023/04/30 02:40:33;;;;;;;22.60;8.10;;;;;;;4.64;64.40;100951.95;107620;1254;112337;-61
2023/04/30 02:43:02;;;;;;;25.80;8.70;;;;;;;4.70;64.46;100949.98;107447;1254;109210;-61
2023/04/30 02:45:31;;;;;;;20.40;9.10;;;;;;;4.75;64.04;100950.08;107560;1251;106661;-61
2023/04/30 02:48:00;;;;;;;21.40;8.30;;;;;;;4.79;63.92;100950.16;107530;1251;97895;-60
2023/04/30 02:50:29;;;;;;;21.70;8.40;;;;;;;4.86;63.93;100951.84;107581;1251;97840;-61
2023/04/30 02:52:57;;;;;;;22.60;8.30;;;;;;;4.92;63.97;100948.49;107587;1257;112158;-61
2023/04/30 02:55:26;;;;;;;23.10;9.30;;;;;;;4.95;63.60;100956.82;107623;1256;109426;-61
2023/04/30 02:57:55;;;;;;;20.10;8.60;;;;;;;4.97;63.32;100951.01;107489;1251;108707;-61
2023/04/30 03:00:23;;;;;;;20.40;8.80;;;;;;;4.98;63.19;100949.85;107586;1251;98476;-61
2023/04/30 03:02:51;;;;;;;27.70;9.30;;;;;;;4.97;62.68;100954.89;107604;1251;98385;-60
2023/04/30 03:05:20;;;;;;;22.30;8.30;;;;;;;4.96;62.90;100956.06;107631;1251;112327;-62
2023/04/30 03:07:48;;;;;;;24.70;9.30;;;;;;;4.91;62.69;100955.29;107588;1251;111273;-60
2023/04/30 03:10:17;;;;;;;24.70;9.10;;;;;;;4.85;62.45;100955.31;107554;1254;109037;-59
2023/04/30 03:12:46;;;;;;;18.40;9.60;;;;;;;4.81;62.30;100957.88;107498;1251;98090;-62
2023/04/30 03:15:14;;;;;;;16.60;8.20;;;;;;;4.78;62.35;100956.63;107540;1251;98158;-59
2023/04/30 03:17:43;;;;;;;21.00;7.60;;;;;;;4.76;62.19;100958.36;107541;1257;110914;-60
2023/04/30 03:20:14;;;;;;;18.70;8.20;;;;;;;4.70;62.63;100962.59;107606;1254;109739;-59
2023/04/30 03:22:45;;;;;;;24.80;8.80;;;;;;;4.64;62.68;100962.58;107560;1251;108049;-60
2023/04/30 03:25:13;;;;;;;23.00;8.40;;;;;;;4.59;63.40;100960.84;107629;1251;97812;-59
2023/04/30 03:27:42;;;;;;;17.20;8.30;;;;;;;4.52;63.52;100962.60;107525;1253;97869;-60
2023/04/30 03:30:10;;;;;;;19.40;8.00;;;;;;;4.46;63.98;100970.77;107628;1254;111988;-59
2023/04/30 03:32:39;;;;;;;15.60;7.90;;;;;;;4.37;64.00;100970.78;107604;1251;109640;-61
2023/04/30 03:35:08;;;;;;;25.20;8.60;;;;;;;4.30;64.15;100969.59;107546;1251;108664;-60
2023/04/30 03:37:36;;;;;;;18.10;8.20;;;;;;;4.27;64.65;100975.09;107568;1251;97838;-59
2023/04/30 03:40:06;;;;;;;17.70;7.60;;;;;;;4.24;65.07;100979.74;107525;1251;98331;-59
2023/04/30 03:42:34;;;;;;;19.90;8.00;;;;;;;4.21;65.13;100982.00;107555;1254;110390;-60
2023/04/30 03:45:03;;;;;;;15.60;8.40;;;;;;;4.22;65.35;100983.40;107610;1254;109289;-62
2023/04/30 03:47:32;;;;;;;26.20;8.80;;;;;;;4.22;64.80;100981.08;107581;1254;106899;-60
2023/04/30 03:50:03;;;;;;;13.30;7.20;;;;;;;4.25;65.03;100980.90;107571;1252;97803;-60
2023/04/30 03:52:32;;;;;;;18.40;7.70;;;;;;;4.28;64.95;100980.55;107520;1256;97739;-60
2023/04/30 03:55:04;;;;;;;15.90;7.80;;;;;;;4.29;64.98;100977.48;107644;1253;110787;-60
2023/04/30 03:57:33;;;;;;;16.30;7.00;;;;;;;4.29;65.23;100977.49;107463;1257;109824;-61
2023/04/30 04:00:06;;;;;;;20.70;7.20;;;;;;;4.30;65.09;100977.41;107518;1253;108909;-60
2023/04/30 04:02:40;;;;;;;19.20;8.00;;;;;;;4.34;64.97;100973.80;107615;1251;97859;-60
2023/04/30 04:05:10;;;;;;;25.20;8.30;;;;;;;4.46;64.99;100975.05;107640;1251;97999;-61
2023/04/30 04:07:38;;;;;;;23.70;8.20;;;;;;;4.61;64.92;100975.24;107594;1256;112703;-61
2023/04/30 04:10:07;;;;;;;20.30;7.00;;;;;;;4.74;64.72;100974.84;107625;1256;109559;-61
2023/04/30 04:12:36;;;;;;;18.70;7.30;;;;;;;4.86;64.66;100977.96;107633;1251;106890;-60
2023/04/30 04:15:06;;;;;;;21.50;7.70;;;;;;;4.99;64.21;100980.03;107632;1256;97931;-63
2023/04/30 04:17:37;;;;;;;24.00;9.20;;;;;;;5.10;63.88;100978.50;107508;1253;97717;-61
2023/04/30 04:20:07;;;;;;;28.00;7.60;;;;;;;5.15;63.65;100978.86;107493;1253;111384;-59
2023/04/30 04:22:36;;;;;;;20.40;7.40;;;;;;;5.24;63.49;100976.70;107647;1251;110066;-61
2023/04/30 04:25:06;;;;;;;17.60;7.60;;;;;;;5.31;63.01;100976.27;107576;1251;107092;-60
2023/04/30 04:27:35;;;;;;;33.30;9.00;;;;;;;5.37;62.85;100973.39;107642;1251;97899;-60
2023/04/30 04:30:04;;;;;;;13.80;7.00;;;;;;;5.40;62.64;100971.80;107536;1254;97831;-61
2023/04/30 04:32:46;;;;;;;29.60;8.50;;;;;;;5.40;62.61;100964.66;107644;1251;112174;-61
2023/04/30 04:35:17;;;;;;;17.00;8.50;;;;;;;5.43;62.27;100968.95;107586;1251;110931;-60
2023/04/30 04:37:45;;;;;;;20.30;10.10;;;;;;;5.45;62.07;100966.69;107518;1251;108310;-63
2023/04/30 04:40:14;;;;;;;24.30;7.40;;;;;;;5.46;61.72;100965.04;107637;1251;97810;-60
2023/04/30 04:42:42;;;;;;;17.80;7.30;;;;;;;5.47;61.55;100969.41;107577;1251;98353;-60
2023/04/30 04:45:14;;;;;;;18.50;8.80;;;;;;;5.52;61.38;100976.39;107601;1251;111739;-60
2023/04/30 04:47:43;;;;;;;19.70;8.20;;;;;;;5.54;61.17;100978.52;107658;1251;110335;-61
2023/04/30 04:50:13;;;;;;;17.00;7.90;;;;;;;5.54;61.16;100978.90;107626;1251;107181;-61
2023/04/30 04:52:42;;;;;;;15.40;7.30;;;;;;;5.57;61.10;100979.27;107613;1251;97924;-62
2023/04/30 04:55:12;;;;;;;23.40;7.60;;;;;;;5.60;60.80;100976.95;107592;1251;97853;-61
2023/04/30 04:57:41;;;;;;;15.60;7.10;;;;;;;5.61;60.78;100984.36;107584;1254;110596;-61
2023/04/30 05:00:11;;;;;;;19.30;7.60;;;;;;;5.62;60.60;100982.32;107658;1254;109246;-60
2023/04/30 05:02:39;;;;;;;19.20;6.80;;;;;;;5.61;60.49;100983.63;107695;1251;108428;-60
2023/04/30 05:05:09;;;;;;;26.80;7.50;;;;;;;5.62;60.27;100978.06;107601;1251;97691;-60
2023/04/30 05:07:38;;;;;;;15.00;5.80;;;;;;;5.67;60.55;100980.22;107541;1251;98344;-62
2023/04/30 05:10:08;;;;;;;19.50;7.50;;;;;;;5.71;60.14;100978.37;107557;1251;111331;-61
2023/04/30 05:12:37;;;;;;;17.90;6.60;;;;;;;5.76;60.09;100976.64;107492;1251;111091;-61
2023/04/30 05:15:06;;;;;;;11.50;5.60;;;;;;;5.85;59.55;100979.45;107581;1253;107925;-61
2023/04/30 05:17:34;;;;;;;14.10;6.50;;;;;;;5.90;59.27;100983.00;107551;1251;97847;-63
2023/04/30 05:20:05;;;;;;;13.80;5.70;;;;;;;5.98;59.05;100983.58;107656;1251;97847;-61
2023/04/30 05:22:34;;;;;;;14.70;5.90;;;;;;;6.10;58.50;100990.83;107522;1254;112351;-61
2023/04/30 05:25:04;;;;;;;20.70;5.80;;;;;;;6.17;57.97;100987.84;107715;1252;109611;-62
2023/04/30 05:27:33;;;;;;;18.40;5.40;;;;;;;6.21;57.83;100991.86;107500;1253;108915;-61
2023/04/30 05:30:01;;;;;;;19.90;5.90;;;;;;;6.26;57.43;100988.54;107513;1251;97803;-60
2023/04/30 05:32:30;;;;;;;15.90;5.80;;;;;;;6.34;57.40;100989.24;107728;1251;97943;-59
2023/04/30 05:34:58;;;;;;;17.00;5.80;;;;;;;6.40;56.89;100989.02;107588;1250;112760;-60
2023/04/30 05:37:27;;;;;;;12.90;5.80;;;;;;;6.45;56.91;100987.82;107449;1251;109765;-61
2023/04/30 05:39:56;;;;;;;14.00;6.50;;;;;;;6.52;56.81;100984.96;107548;1251;108484;-60
2023/04/30 05:42:24;;;;;;;17.20;6.30;;;;;;;6.60;56.70;100974.28;107482;1254;97829;-62
2023/04/30 05:44:53;;;;;;;20.20;6.30;;;;;;;6.67;56.85;100973.80;107524;1251;98340;-60
2023/04/30 05:47:21;;;;;;;10.00;5.70;;;;;;;6.76;56.82;100975.52;107503;1251;111731;-61
2023/04/30 05:49:50;;;;;;;16.50;7.70;;;;;;;6.87;56.78;100976.91;107513;1251;110259;-62
2023/04/30 05:52:19;;;;;;;24.30;6.50;;;;;;;6.98;56.60;100978.63;107547;1251;108532;-60
2023/04/30 05:54:47;;;;;;;18.30;6.70;;;;;;;7.08;56.44;100981.00;107516;1251;97832;-62
2023/04/30 05:57:17;;;;;;;17.80;7.50;;;;;;;7.16;56.34;100979.30;107671;1251;97688;-61
2023/04/30 05:59:45;;;;;;;20.30;6.40;;;;;;;7.27;56.41;100977.89;107623;1253;113109;-61
2023/04/30 06:02:13;;;;;;;16.40;8.50;;;;;;;7.37;56.41;100974.67;107702;1254;109523;-62
2023/04/30 06:04:42;;;;;;;22.80;6.20;;;;;;;7.47;56.18;100974.79;107539;1250;108561;-61
2023/04/30 06:07:12;;;;;;;18.50;5.90;;;;;;;7.59;55.85;100968.98;107508;1251;97979;-60
2023/04/30 06:09:40;;;;;;;15.90;5.90;;;;;;;7.72;55.69;100969.25;107599;1253;98344;-60
2023/04/30 06:12:09;;;;;;;20.60;6.20;;;;;;;7.87;55.59;100968.52;107578;1251;111092;-60
2023/04/30 06:14:38;;;;;;;12.10;5.60;;;;;;;8.03;55.29;100966.11;107544;1251;111090;-61
2023/04/30 06:17:07;;;;;;;15.70;6.30;;;;;;;8.17;54.73;100967.40;107589;1251;107359;-60
2023/04/30 06:19:37;;;;;;;10.30;5.80;;;;;;;8.28;54.69;100970.63;107466;1250;97809;-62
2023/04/30 06:22:06;;;;;;;14.30;6.80;;;;;;;8.40;54.65;100966.86;107484;1251;97692;-63
2023/04/30 06:24:34;;;;;;;15.80;6.50;;;;;;;8.54;54.76;100965.02;107565;1251;111859;-62
2023/04/30 06:27:03;;;;;;;14.90;6.10;;;;;;;8.67;54.78;100961.26;107531;1251;109669;-60
2023/04/30 06:29:32;;;;;;;13.60;6.40;;;;;;;8.83;54.72;100961.81;107555;1251;107394;-59
2023/04/30 06:32:00;;;;;;;17.10;6.50;;;;;;;8.98;54.46;100961.52;107477;1251;97850;-61
2023/04/30 06:34:29;;;;;;;20.90;6.20;;;;;;;9.13;53.96;100959.33;107576;1251;97707;-62
2023/04/30 06:36:58;;;;;;;12.80;5.90;;;;;;;9.25;53.56;100954.41;107663;1251;111702;-61
2023/04/30 06:39:26;;;;;;;14.50;6.20;;;;;;;9.38;53.58;100950.55;107518;1254;109885;-62
2023/04/30 06:41:55;;;;;;;11.50;5.70;;;;;;;9.50;53.42;100946.15;107589;1251;108326;-60
2023/04/30 06:44:23;;;;;;;16.20;5.60;;;;;;;9.62;53.24;100946.83;107534;1251;97821;-60
2023/04/30 06:46:53;;;;;;;13.30;5.50;;;;;;;9.75;52.55;100946.83;107556;1251;98315;-60
2023/04/30 06:49:21;;;;;;;10.40;5.60;;;;;;;9.87;52.54;100946.89;107466;1250;111827;-60
2023/04/30 06:51:50;;;;;;;20.90;6.00;;;;;;;10.00;52.61;100939.24;107564;1251;110246;-62
2023/04/30 06:54:21;;;;;;;13.60;4.40;;;;;;;10.13;52.43;100933.67;107565;1251;107907;-60
2023/04/30 06:56:49;;;;;;;10.40;4.50;;;;;;;10.25;52.10;100932.63;107593;1251;97810;-61
2023/04/30 06:59:18;;;;;;;10.10;3.20;;;;;;;10.39;51.39;100930.39;107536;1251;97737;-61
2023/04/30 07:01:50;;;;;;;15.70;3.10;;;;;;;10.52;50.18;100930.36;107604;1251;112275;-61
2023/04/30 07:04:18;;;;;;;8.50;2.50;;;;;;;10.67;49.70;100926.81;107607;1251;110102;-62
2023/04/30 07:06:47;;;;;;;13.20;2.70;;;;;;;10.81;48.55;100927.17;107608;1251;108555;-61
2023/04/30 07:09:16;;;;;;;7.30;2.50;;;;;;;10.96;47.80;100922.84;107501;1251;98611;-62
2023/04/30 07:11:44;;;;;;;4.50;2.50;;;;;;;11.14;47.05;100922.35;107556;1251;98351;-61
2023/04/30 07:14:12;;;;;;;8.30;2.80;;;;;;;11.32;46.70;100921.67;107609;1251;110781;-61
2023/04/30 07:16:41;;;;;;;8.20;2.30;;;;;;;11.45;46.53;100923.35;107599;1251;110758;-60
2023/04/30 07:19:09;;;;;;;6.90;3.00;;;;;;;11.57;45.79;100924.79;107570;1251;108304;-62
2023/04/30 07:21:38;;;;;;;10.60;2.40;;;;;;;11.68;45.97;100925.29;107584;1251;97816;-61
2023/04/30 07:24:06;;;;;;;8.40;2.30;;;;;;;11.79;45.48;100921.36;107609;1251;98466;-61
2023/04/30 07:26:35;;;;;;;5.50;2.00;;;;;;;11.90;45.29;100916.63;107584;1251;111780;-61
2023/04/30 07:29:03;;;;;;;11.10;2.10;;;;;;;12.01;45.23;100918.20;107572;1251;109577;-64
2023/04/30 07:31:33;;;;;;;5.60;1.50;;;;;;;12.15;43.33;100918.64;107495;1257;108720;-62
2023/04/30 07:34:01;;;;;;;6.80;1.90;;;;;;;12.27;43.31;100923.46;107552;1254;97707;-62
2023/04/30 07:36:30;;;;;;;13.50;3.70;;;;;;;12.37;42.05;100915.95;107611;1251;97684;-62
2023/04/30 07:38:59;;;;;;;12.00;2.70;;;;;;;12.49;41.82;100918.41;107541;1251;111883;-61
2023/04/30 07:41:27;;;;;;;10.50;2.80;;;;;;;12.63;41.97;100915.44;107593;1254;109610;-62
2023/04/30 07:43:56;;;;;;;5.90;1.10;;;;;;;12.74;40.55;100916.59;107592;1251;107817;-62
2023/04/30 07:46:24;;;;;;;10.50;1.70;;;;;;;12.84;39.23;100911.83;107543;1251;97908;-60
2023/04/30 07:48:54;;;;;;;13.10;2.70;;;;;;;13.01;39.16;100908.23;107606;1251;98335;-62
2023/04/30 07:51:22;;;;;;;8.50;2.10;;;;;;;13.14;39.39;100904.27;107604;1251;111252;-61
2023/04/30 07:53:52;;;;;;;11.70;2.10;;;;;;;13.26;38.85;100901.52;107633;1251;109283;-62
2023/04/30 07:56:23;;;;;;;6.40;1.40;;;;;;;13.36;38.86;100900.33;107639;1254;108684;-60
2023/04/30 07:58:51;;;;;;;9.00;2.10;;;;;;;13.48;39.03;100899.60;107010;1254;737279;-61
2023/04/30 08:01:19;;;;;;;18.20;2.00;;;;;;;13.62;37.21;100897.32;107637;1251;98337;-62
2023/04/30 08:03:48;;;;;;;6.80;1.10;;;;;;;13.84;35.02;100898.33;107601;1251;111946;-61
2023/04/30 08:06:16;;;;;;;11.70;1.70;;;;;;;14.08;34.39;100900.10;107668;1250;108661;-62
2023/04/30 08:08:44;;;;;;;12.30;1.60;;;;;;;14.24;34.76;100901.55;107560;1251;108757;-62
2023/04/30 08:11:14;;;;;;;9.90;1.80;;;;;;;14.40;34.41;100898.45;107561;1251;98568;-61
2023/04/30 08:13:42;;;;;;;3.60;0.90;;;;;;;14.52;32.77;100886.90;107649;1251;97671;-62
2023/04/30 08:16:11;;;;;;;3.00;0.80;;;;;;;14.55;33.36;100890.17;107630;1252;113095;-66
2023/04/30 08:18:43;;;;;;;7.80;1.70;;;;;;;14.56;32.93;100889.27;107605;1251;109822;-61
2023/04/30 08:21:12;;;;;;;9.90;1.10;;;;;;;14.54;33.02;100885.59;107581;1254;108186;-62
2023/04/30 08:23:41;;;;;;;2.80;0.90;;;;;;;14.55;32.96;100886.98;107690;1251;97729;-62
2023/04/30 08:26:10;;;;;;;4.20;1.10;;;;;;;14.61;33.21;100887.87;107610;1251;98454;-63
2023/04/30 08:28:38;;;;;;;2.60;0.90;;;;;;;14.76;32.81;100886.30;107589;1251;111840;-64
2023/04/30 08:31:07;;;;;;;5.10;1.50;;;;;;;14.90;32.88;100881.43;107580;1252;109181;-63
2023/04/30 08:33:36;;;;;;;4.60;1.10;;;;;;;15.06;32.68;100879.58;107589;1251;107868;-62
2023/04/30 08:36:04;;;;;;;3.10;1.20;;;;;;;15.30;31.33;100883.88;107589;1251;97819;-62
2023/04/30 08:38:33;;;;;;;5.30;1.00;;;;;;;15.47;30.48;100884.58;107633;1251;97688;-62
2023/04/30 08:41:12;;;;;;;5.40;1.70;;;;;;;15.64;30.75;100883.87;107565;1251;112767;-64
2023/04/30 08:43:43;;;;;;;10.70;1.60;;;;;;;15.81;31.50;100880.58;107553;1254;110034;-61
2023/04/30 08:46:15;;;;;;;8.10;1.10;;;;;;;15.98;31.11;100875.89;107545;1255;107834;-63
2023/04/30 08:48:44;;;;;;;5.90;1.00;;;;;;;16.13;31.44;100878.20;107505;1251;97860;-64
2023/04/30 08:51:13;;;;;;;11.90;3.10;;;;;;;16.24;31.58;100873.67;107520;1251;97829;-62
2023/04/30 08:53:45;;;;;;;1.90;0.90;;;;;;;16.38;30.48;100872.51;107560;1251;113101;-61
2023/04/30 08:56:14;;;;;;;4.50;1.20;;;;;;;16.50;29.28;100860.89;107561;1251;110889;-62
2023/04/30 08:58:43;;;;;;;2.60;1.40;;;;;;;16.61;29.41;100855.08;107469;1254;107812;-62
2023/04/30 09:01:12;;;;;;;7.60;3.20;;;;;;;16.79;29.31;100858.73;107516;1254;97815;-63
2023/04/30 09:03:41;;;;;;;13.90;2.80;;;;;;;16.97;28.31;100854.75;107626;1250;97830;-62
2023/04/30 09:06:14;;;;;;;5.50;1.70;;;;;;;17.12;27.66;100855.12;107647;1251;111827;-62
2023/04/30 09:08:50;;;;;;;3.50;1.80;;;;;;;17.23;27.68;100853.91;107510;1251;108686;-63
2023/04/30 09:11:29;;;;;;;6.60;1.40;;;;;;;17.38;27.56;100852.58;107524;1254;108618;-62
2023/04/30 09:14:00;;;;;;;3.60;0.90;;;;;;;17.60;29.03;100850.22;107541;1251;99170;-61
2023/04/30 09:16:44;;;;;;;2.20;0.90;;;;;;;17.86;28.54;100847.13;107609;1251;97828;-65
2023/04/30 09:19:27;;;;;;;3.80;1.10;;;;;;;18.17;28.15;100842.20;107549;1251;111347;-63
2023/04/30 09:21:56;;;;;;;4.90;1.50;;;;;;;18.53;26.97;100838.27;107552;1251;110772;-62
2023/04/30 09:24:24;;;;;;;6.20;2.10;;;;;;;18.80;26.78;100838.43;107553;1251;107438;-64
2023/04/30 09:26:53;;;;;;;13.90;1.80;;;;;;;19.12;26.42;100835.27;107523;1251;97829;-62
2023/04/30 09:29:39;;;;;;;7.10;2.50;;;;;;;19.48;26.08;100833.55;107468;1251;98344;-62
2023/04/30 09:32:08;;;;;;;7.20;1.50;;;;;;;19.89;25.46;100832.20;107585;1251;112385;-63
2023/04/30 09:34:37;;;;;;;4.60;1.10;;;;;;;20.25;25.45;100831.97;107551;1251;109026;-63
2023/04/30 09:37:06;;;;;;;3.40;1.30;;;;;;;20.26;25.59;100828.98;107591;1251;107583;-63
2023/04/30 09:39:47;;;;;;;9.00;1.30;;;;;;;20.02;24.88;100832.67;107639;1251;98282;-62
2023/04/30 09:42:16;;;;;;;5.00;1.50;;;;;;;19.69;23.89;100829.65;107609;1251;97900;-64
2023/04/30 09:44:46;;;;;;;8.60;1.10;;;;;;;19.83;24.23;100837.16;107577;1251;110992;-63
2023/04/30 09:47:17;;;;;;;5.60;1.30;;;;;;;20.27;24.43;100834.79;107612;1251;109009;-63
2023/04/30 09:49:50;;;;;;;10.60;1.30;;;;;;;20.92;24.65;100832.96;107545;1251;108144;-62
2023/04/30 09:52:20;;;;;;;23.00;2.80;;;;;;;21.59;23.45;100827.09;107559;1251;97978;-62
2023/04/30 09:54:48;;;;;;;8.50;1.20;;;;;;;22.06;23.53;100822.17;107601;1251;98443;-63
2023/04/30 09:57:21;;;;;;;5.80;1.50;;;;;;;22.59;23.60;100821.61;107597;1251;111034;-63
2023/04/30 09:59:51;;;;;;;4.40;1.10;;;;;;;23.22;23.02;100824.16;107632;1251;109904;-62
2023/04/30 10:02:22;;;;;;;5.60;1.50;;;;;;;23.89;21.80;100817.53;107641;1256;107160;-63
2023/04/30 10:04:57;;;;;;;4.80;0.90;;;;;;;24.33;21.44;100818.56;107681;1255;97697;-63
2023/04/30 10:07:33;;;;;;;12.60;1.90;;;;;;;24.65;20.02;100814.13;107607;1251;97702;-63
2023/04/30 10:10:09;;;;;;;16.00;8.20;;;;;;;24.90;19.51;100812.07;107509;1251;111881;-62
2023/04/30 10:12:55;;;;;;;26.70;6.10;;;;;;;25.09;19.63;100814.04;107643;1255;108761;-64
2023/04/30 10:15:48;;;;;;;2.10;1.00;;;;;;;25.27;19.01;100817.89;107547;1254;107706;-63
2023/04/30 10:18:49;;;;;;;3.90;1.50;;;;;;;25.65;19.42;100812.80;107585;1254;98443;-65
2023/04/30 10:21:21;;;;;;;1.60;1.00;;;;;;;26.27;19.43;100810.73;107549;1251;97735;-62
2023/04/30 10:23:53;;;;;;;4.50;1.40;;;;;;;26.87;18.28;100806.00;107561;1251;111694;-63
2023/04/30 10:26:27;;;;;;;5.40;1.50;;;;;;;27.16;18.62;100808.61;107537;1253;109611;-63
2023/04/30 10:28:57;;;;;;;5.90;1.10;;;;;;;27.54;17.50;100804.10;107557;1254;107703;-63
2023/04/30 10:31:27;;;;;;;9.50;2.30;;;;;;;27.38;16.88;100795.90;107544;1251;97816;-62
2023/04/30 10:34:08;;;;;;;13.90;2.30;;;;;;;27.05;17.13;100797.36;107577;1254;98298;-63
2023/04/30 10:36:43;;;;;;;6.00;1.20;;;;;;;26.74;17.20;100803.77;107564;1251;112668;-62
2023/04/30 10:39:12;;;;;;;7.40;1.90;;;;;;;26.44;17.38;100804.00;107583;1251;110253;-64
2023/04/30 10:41:45;;;;;;;8.40;1.50;;;;;;;26.26;16.63;100802.21;107568;1251;107508;-63
2023/04/30 10:44:21;;;;;;;2.40;1.10;;;;;;;25.95;17.38;100805.70;107558;1251;97870;-65
2023/04/30 10:46:57;;;;;;;4.90;2.00;;;;;;;25.94;17.76;100803.21;107671;1251;97690;-63
2023/04/30 10:49:26;;;;;;;6.60;2.00;;;;;;;26.37;17.98;100802.43;107567;1254;110903;-62
2023/04/30 10:51:59;;;;;;;6.00;1.70;;;;;;;27.05;17.29;100796.27;107574;1251;110609;-63
2023/04/30 10:54:33;;;;;;;3.40;1.60;;;;;;;27.43;17.14;100797.16;107582;1251;108656;-64
2023/04/30 10:57:13;;;;;;;9.30;1.50;;;;;;;27.72;16.58;100793.30;107567;1251;97847;-64
2023/04/30 10:59:44;;;;;;;4.60;1.20;;;;;;;27.28;16.65;100796.42;107541;1251;98459;-62
2023/04/30 11:02:16;;;;;;;3.80;1.70;;;;;;;26.94;16.74;100792.84;107621;1251;111455;-63
2023/04/30 11:05:03;;;;;;;5.80;1.10;;;;;;;26.54;17.29;100792.70;107743;1251;109750;-63
2023/04/30 11:07:32;;;;;;;6.80;1.10;;;;;;;26.29;17.63;100790.50;107618;1251;107244;-62
2023/04/30 11:10:02;;;;;;;4.00;1.20;;;;;;;26.35;18.19;100785.49;107549;1251;97734;-65
2023/04/30 11:12:30;;;;;;;8.10;1.80;;;;;;;26.39;17.73;100784.11;107633;1251;97778;-64
2023/04/30 11:15:13;;;;;;;4.40;1.00;;;;;;;26.94;17.36;100783.61;107587;1253;111784;-63
2023/04/30 11:17:45;;;;;;;;;;;;;;;26.81;16.14;100786.86;107596;1253;109003;-63
2023/04/30 11:20:24;;;;;;;1.70;0.80;;;;;;;26.09;17.09;100788.08;107520;1251;108199;-63
2023/04/30 11:23:12;;;;;;;5.80;1.30;;;;;;;25.81;17.56;100787.67;107529;1253;97809;-62
2023/04/30 11:25:55;;;;;;;7.00;1.40;;;;;;;25.79;17.80;100792.11;107603;1254;98282;-63
2023/04/30 11:28:25;;;;;;;5.40;1.10;;;;;;;26.05;17.31;100786.88;107625;1251;111317;-64
2023/04/30 11:30:56;;;;;;;6.10;1.20;;;;;;;26.34;17.45;100778.59;107553;1254;110272;-63